Time;durP1;ratioP1;P1;durP2;ratioP2;P2;SDS_P1;SDS_P2;PMS_P1;PMS_P2;Temp;Humidity;BMP_temperature;BMP_pressure;BME280_temperature;BME280_humidity;BME280_pressure;Samples;Min_cycle;Max_cycle;Signal;HPM_P1;HPM_P2
2023/04/17 00:00:26;;;;;;;28.93;26.47;;;;;;;8.94;100.00;102594.69;5061414;28;20471;-44
2023/04/17 00:02:55;;;;;;;31.27;28.20;;;;;;;8.96;100.00;102595.38;5062148;28;20436;-50
2023/04/17 00:05:25;;;;;;;29.77;27.17;;;;;;;8.98;100.00;102596.09;5062625;28;20441;-45
2023/04/17 00:07:53;;;;;;;29.60;26.63;;;;;;;8.97;100.00;102596.22;5061827;28;20457;-43
2023/04/17 00:10:21;;;;;;;30.07;26.40;;;;;;;8.96;100.00;102594.56;5061834;28;20475;-43
2023/04/17 00:12:49;;;;;;;29.10;26.00;;;;;;;8.96;100.00;102594.56;5061846;28;20427;-42
2023/04/17 00:15:16;;;;;;;30.13;26.90;;;;;;;8.93;100.00;102593.00;5062472;28;20431;-42
2023/04/17 00:17:44;;;;;;;29.20;26.30;;;;;;;8.95;100.00;102592.88;5061343;28;20431;-42
2023/04/17 00:20:13;;;;;;;28.87;26.10;;;;;;;8.96;100.00;102599.88;5061646;28;20466;-42
2023/04/17 00:22:41;;;;;;;28.77;25.97;;;;;;;8.95;100.00;102604.38;5061998;28;20892;-46
2023/04/17 00:25:11;;;;;;;28.97;26.27;;;;;;;8.97;100.00;102602.41;5061640;28;20467;-47
2023/04/17 00:27:39;;;;;;;29.53;26.63;;;;;;;8.98;100.00;102600.56;5061774;28;20439;-46
2023/04/17 00:30:08;;;;;;;29.43;26.90;;;;;;;8.97;100.00;102607.72;5061289;28;20466;-45
2023/04/17 00:32:36;;;;;;;30.53;27.43;;;;;;;8.95;100.00;102604.38;5061634;28;20445;-46
2023/04/17 00:35:04;;;;;;;28.80;26.33;;;;;;;8.95;100.00;102600.84;5062011;28;20448;-45
2023/04/17 00:37:34;;;;;;;31.20;27.63;;;;;;;8.88;100.00;102604.09;5061749;28;20521;-44
2023/04/17 00:40:02;;;;;;;31.70;28.70;;;;;;;8.92;100.00;102603.81;5060675;28;21019;-45
2023/04/17 00:42:30;;;;;;;31.10;28.30;;;;;;;8.87;100.00;102594.41;5061815;28;20431;-49
2023/04/17 00:44:57;;;;;;;30.83;27.83;;;;;;;8.85;100.00;102591.06;5062111;28;20427;-45
2023/04/17 00:47:26;;;;;;;31.40;28.17;;;;;;;8.87;100.00;102598.88;5061624;28;20427;-42
2023/04/17 00:49:54;;;;;;;29.53;26.73;;;;;;;8.84;100.00;102592.03;5060869;28;20470;-42
2023/04/17 00:52:28;;;;;;;29.33;26.23;;;;;;;8.86;100.00;102598.06;5060917;28;20431;-45
2023/04/17 00:54:58;;;;;;;30.73;27.83;;;;;;;8.86;100.00;102597.22;5060909;28;20446;-43
2023/04/17 00:57:26;;;;;;;31.80;28.60;;;;;;;8.80;100.00;102600.44;5061285;28;20423;-43
2023/04/17 00:59:56;;;;;;;29.07;26.03;;;;;;;8.83;100.00;102597.50;5059999;28;20463;-45
2023/04/17 01:02:24;;;;;;;31.77;28.60;;;;;;;8.81;100.00;102589.66;5061545;28;20490;-45
2023/04/17 01:04:52;;;;;;;29.53;26.60;;;;;;;8.78;100.00;102591.78;5060845;28;20855;-52
2023/04/17 01:07:20;;;;;;;31.13;28.03;;;;;;;8.77;100.00;102595.41;5061764;28;20519;-48
2023/04/17 01:09:48;;;;;;;30.67;27.67;;;;;;;8.78;100.00;102591.78;5060176;28;20988;-45
2023/04/17 01:12:18;;;;;;;32.00;27.50;;;;;;;8.79;100.00;102596.94;5060384;28;20459;-43
2023/04/17 01:14:46;;;;;;;29.03;26.27;;;;;;;8.73;100.00;102594.00;5060811;28;20428;-42
2023/04/17 01:17:14;;;;;;;30.83;27.73;;;;;;;8.73;100.00;102594.00;5060791;28;20793;-45
2023/04/17 01:19:42;;;;;;;29.70;26.70;;;;;;;8.73;100.00;102589.50;5060320;28;20474;-42
2023/04/17 01:22:09;;;;;;;28.10;25.40;;;;;;;8.68;100.00;102585.59;5060707;28;20473;-43
2023/04/17 01:24:39;;;;;;;30.40;27.40;;;;;;;8.65;100.00;102591.19;5060791;28;20445;-50
2023/04/17 01:27:06;;;;;;;31.20;27.93;;;;;;;8.68;100.00;102585.59;5061288;28;20437;-44
2023/04/17 01:29:34;;;;;;;29.70;26.90;;;;;;;8.65;100.00;102591.19;5060057;28;20538;-45
2023/04/17 01:32:02;;;;;;;31.80;28.80;;;;;;;8.63;100.00;102590.50;5060427;28;20451;-44
2023/04/17 01:34:30;;;;;;;28.80;25.93;;;;;;;8.60;100.00;102588.94;5060437;28;20518;-48
2023/04/17 01:36:57;;;;;;;29.47;26.77;;;;;;;8.62;100.00;102587.00;5060407;28;20431;-42
2023/04/17 01:39:25;;;;;;;28.93;26.33;;;;;;;8.62;100.00;102592.31;5058837;28;20475;-43
2023/04/17 01:41:55;;;;;;;29.73;26.83;;;;;;;8.63;100.00;102587.84;5060150;28;20541;-47
2023/04/17 01:44:23;;;;;;;31.50;28.57;;;;;;;8.58;100.00;102590.06;5060235;28;20469;-43
2023/04/17 01:46:51;;;;;;;32.43;29.23;;;;;;;8.60;100.00;102588.94;5060235;28;20506;-46
2023/04/17 01:49:19;;;;;;;31.43;28.43;;;;;;;8.60;100.00;102586.28;5057717;28;20435;-46
2023/04/17 01:51:47;;;;;;;30.77;27.83;;;;;;;8.59;100.00;102589.94;5059995;28;20485;-48
2023/04/17 01:54:15;;;;;;;30.27;27.40;;;;;;;8.61;100.00;102581.81;5059908;28;20445;-50
2023/04/17 01:56:43;;;;;;;30.73;27.53;;;;;;;8.60;100.00;102593.44;5059617;28;20461;-43
2023/04/17 01:59:12;;;;;;;31.80;28.60;;;;;;;8.59;100.00;102591.75;5059640;28;20475;-45
2023/04/17 02:01:40;;;;;;;30.57;27.77;;;;;;;8.49;100.00;102607.69;5060463;28;20485;-43
2023/04/17 02:04:07;;;;;;;31.43;28.43;;;;;;;8.40;100.00;102603.19;5060060;28;20427;-45
2023/04/17 02:06:35;;;;;;;31.30;28.40;;;;;;;8.47;100.00;102611.47;5059932;28;20435;-46
2023/04/17 02:09:03;;;;;;;31.27;28.33;;;;;;;8.42;100.00;102611.91;5059813;28;20431;-46
2023/04/17 02:11:31;;;;;;;32.30;28.83;;;;;;;8.41;100.00;102606.69;5059761;28;20506;-44
2023/04/17 02:13:59;;;;;;;31.60;28.23;;;;;;;8.41;100.00;102612.00;5060238;28;20438;-42
2023/04/17 02:16:30;;;;;;;31.83;28.57;;;;;;;8.38;100.00;102612.28;5059843;28;20435;-44
2023/04/17 02:18:58;;;;;;;30.50;27.63;;;;;;;8.26;100.00;102607.06;5059636;28;21172;-44
2023/04/17 02:21:27;;;;;;;29.37;26.53;;;;;;;8.24;100.00;102608.19;5057660;28;20467;-42
2023/04/17 02:23:54;;;;;;;31.43;28.10;;;;;;;8.25;100.00;102604.53;5059550;28;20427;-46
2023/04/17 02:26:22;;;;;;;30.63;27.73;;;;;;;8.24;100.00;102609.00;5059788;28;20470;-42
2023/04/17 02:28:50;;;;;;;29.57;26.83;;;;;;;8.22;100.00;102607.47;5060109;28;20449;-43
2023/04/17 02:31:17;;;;;;;31.37;28.43;;;;;;;8.22;100.00;102602.97;5058471;28;20469;-48
2023/04/17 02:33:46;;;;;;;32.53;29.43;;;;;;;8.22;100.00;102605.63;5059526;28;20427;-42
2023/04/17 02:36:15;;;;;;;33.87;28.90;;;;;;;8.23;100.00;102607.34;5059473;28;20435;-44
2023/04/17 02:38:42;;;;;;;32.23;29.30;;;;;;;8.26;100.00;102609.72;5059495;28;20517;-42
2023/04/17 02:41:10;;;;;;;29.67;26.77;;;;;;;8.25;100.00;102609.84;5058774;28;20471;-43
2023/04/17 02:43:37;;;;;;;30.00;27.00;;;;;;;8.21;100.00;102613.78;5059209;28;20431;-42
2023/04/17 02:46:05;;;;;;;32.60;29.20;;;;;;;8.09;100.00;102610.38;5059235;28;20435;-44
2023/04/17 02:48:33;;;;;;;33.00;29.50;;;;;;;8.07;100.00;102607.00;5059418;28;20924;-44
2023/04/17 02:51:02;;;;;;;29.10;26.50;;;;;;;8.10;100.00;102608.53;5058434;28;20993;-44
2023/04/17 02:53:29;;;;;;;32.37;28.93;;;;;;;8.09;100.00;102609.53;5058552;28;20442;-45
2023/04/17 02:55:57;;;;;;;30.83;28.07;;;;;;;8.11;100.00;102615.53;5058960;28;20447;-47
2023/04/17 02:58:25;;;;;;;31.83;28.90;;;;;;;8.12;100.00;102623.38;5059109;28;20514;-44
2023/04/17 03:01:00;;;;;;;31.20;28.00;;;;;;;8.14;100.00;102612.63;5058668;28;20478;-47
2023/04/17 03:03:29;;;;;;;29.83;26.93;;;;;;;8.14;100.00;102617.94;5058872;28;20423;-44
2023/04/17 03:05:57;;;;;;;32.37;28.97;;;;;;;8.17;100.00;102615.00;5058794;28;20435;-49
2023/04/17 03:08:28;;;;;;;36.90;33.20;;;;;;;8.18;100.00;102616.69;5058536;28;20522;-45
2023/04/17 03:10:59;;;;;;;33.70;30.40;;;;;;;8.19;100.00;102616.53;5058017;28;20467;-41
2023/04/17 03:13:27;;;;;;;31.93;28.80;;;;;;;8.20;100.00;102615.56;5059003;28;20802;-47
2023/04/17 03:15:55;;;;;;;32.57;29.40;;;;;;;8.18;100.00;102617.50;5058753;28;20489;-45
2023/04/17 03:18:22;;;;;;;34.43;28.83;;;;;;;8.18;100.00;102612.19;5057518;28;20441;-44
2023/04/17 03:20:51;;;;;;;30.30;27.60;;;;;;;8.19;100.00;102613.88;5056579;28;20471;-44
2023/04/17 03:23:19;;;;;;;30.07;27.27;;;;;;;8.24;100.00;102622.28;5058735;28;20434;-44
2023/04/17 03:25:48;;;;;;;30.23;27.63;;;;;;;8.27;100.00;102616.72;5057631;28;20427;-44
2023/04/17 03:28:16;;;;;;;29.90;27.00;;;;;;;8.29;100.00;102613.94;5059045;28;20437;-44
2023/04/17 03:30:43;;;;;;;31.10;28.20;;;;;;;8.31;100.00;102619.97;5057942;28;20493;-49
2023/04/17 03:33:11;;;;;;;31.17;27.63;;;;;;;8.31;100.00;102626.13;5058723;28;20442;-45
2023/04/17 03:35:39;;;;;;;30.33;27.77;;;;;;;8.33;100.00;102623.34;5059177;28;20470;-43
2023/04/17 03:38:06;;;;;;;29.37;26.57;;;;;;;8.32;100.00;102624.31;5058393;28;20804;-44
2023/04/17 03:40:34;;;;;;;29.80;27.00;;;;;;;8.29;100.00;102633.41;5057880;28;20479;-46
2023/04/17 03:43:03;;;;;;;29.60;27.03;;;;;;;8.24;100.00;102626.78;5058755;28;20435;-47
2023/04/17 03:45:31;;;;;;;30.50;27.40;;;;;;;8.27;100.00;102630.03;5058214;28;20439;-42
2023/04/17 03:47:59;;;;;;;29.67;26.80;;;;;;;8.29;100.00;102633.41;5058463;28;20432;-46
2023/04/17 03:50:26;;;;;;;30.73;27.50;;;;;;;8.28;100.00;102639.69;5057501;28;20462;-42
2023/04/17 03:52:54;;;;;;;29.87;27.20;;;;;;;8.23;100.00;102636.56;5058471;28;20856;-44
2023/04/17 03:55:22;;;;;;;32.13;29.00;;;;;;;8.24;100.00;102635.56;5058798;28;20448;-42
2023/04/17 03:57:50;;;;;;;33.93;30.30;;;;;;;8.25;100.00;102633.75;5058429;28;20443;-44
2023/04/17 04:00:20;;;;;;;32.53;29.23;;;;;;;8.26;100.00;102640.78;5057687;28;20479;-43
2023/04/17 04:02:48;;;;;;;28.87;26.37;;;;;;;8.22;100.00;102637.53;5058057;28;20916;-46
2023/04/17 04:05:16;;;;;;;32.43;28.87;;;;;;;8.16;100.00;102637.22;5058294;28;20431;-45
2023/04/17 04:07:44;;;;;;;31.97;28.57;;;;;;;8.07;100.00;102641.53;5059035;28;20462;-47
2023/04/17 04:10:11;;;;;;;29.67;27.07;;;;;;;8.15;100.00;102640.88;5053222;28;20831;-48
2023/04/17 04:12:39;;;;;;;30.33;27.57;;;;;;;8.18;100.00;102640.63;5057956;28;20492;-46
2023/04/17 04:15:08;;;;;;;29.37;26.47;;;;;;;8.14;100.00;102637.38;5057929;28;20430;-43
2023/04/17 04:17:37;;;;;;;28.57;25.70;;;;;;;8.18;100.00;102635.28;5059047;28;20430;-43
2023/04/17 04:20:07;;;;;;;29.50;26.80;;;;;;;8.21;100.00;102633.19;5058351;28;20477;-45
2023/04/17 04:22:34;;;;;;;30.03;27.00;;;;;;;8.26;100.00;102638.97;5054276;28;20469;-42
2023/04/17 04:25:02;;;;;;;29.07;26.23;;;;;;;8.29;100.00;102636.06;5061832;28;20924;-45
2023/04/17 04:27:31;;;;;;;29.10;26.00;;;;;;;8.34;100.00;102640.97;5061971;28;20439;-49
2023/04/17 04:30:00;;;;;;;27.60;25.13;;;;;;;8.34;100.00;102636.50;5062101;28;20431;-42
2023/04/17 04:32:28;;;;;;;28.63;26.23;;;;;;;8.38;100.00;102637.06;5057702;28;20462;-48
2023/04/17 04:35:00;;;;;;;26.77;24.13;;;;;;;8.45;100.00;102635.56;5062158;28;20435;-47
2023/04/17 04:37:30;;;;;;;26.47;24.00;;;;;;;8.58;100.00;102640.59;5061805;28;20481;-46
2023/04/17 04:40:01;;;;;;;28.50;25.60;;;;;;;8.72;100.00;102642.88;5061813;28;20968;-43
2023/04/17 04:42:28;;;;;;;26.17;24.07;;;;;;;8.90;100.00;102641.19;5061399;28;20467;-46
2023/04/17 04:44:56;;;;;;;29.13;26.53;;;;;;;9.00;100.00;102644.69;5061458;28;20431;-49
2023/04/17 04:47:24;;;;;;;27.53;25.23;;;;;;;9.13;100.00;102647.91;5062294;28;20439;-48
2023/04/17 04:49:51;;;;;;;29.53;26.83;;;;;;;9.29;100.00;102649.97;5061711;28;20431;-43
2023/04/17 04:52:20;;;;;;;26.60;24.50;;;;;;;9.64;100.00;102649.38;5060592;28;20460;-47
2023/04/17 04:54:48;;;;;;;27.90;25.53;;;;;;;10.08;100.00;102651.34;5061246;28;20431;-42
2023/04/17 04:57:16;;;;;;;27.50;25.40;;;;;;;10.47;100.00;102649.34;5061323;28;20873;-42
2023/04/17 04:59:43;;;;;;;28.67;25.87;;;;;;;10.79;100.00;102643.50;5061518;28;20435;-43
2023/04/17 05:02:11;;;;;;;28.90;26.60;;;;;;;10.83;100.00;102645.72;5057682;28;20475;-47
2023/04/17 05:04:40;;;;;;;28.57;26.13;;;;;;;11.12;100.00;102640.13;5060373;28;20565;-45
2023/04/17 05:07:07;;;;;;;26.37;24.23;;;;;;;11.74;100.00;102652.47;5061847;28;20994;-47
2023/04/17 05:09:37;;;;;;;28.50;25.83;;;;;;;12.19;100.00;102652.22;5060644;28;20434;-45
2023/04/17 05:12:05;;;;;;;26.87;24.80;;;;;;;12.79;100.00;102647.53;5060300;28;20467;-41
2023/04/17 05:14:33;;;;;;;28.60;26.20;;;;;;;13.10;100.00;102653.13;5060264;28;20432;-45
2023/04/17 05:17:00;;;;;;;26.80;24.60;;;;;;;13.17;100.00;102652.28;5060449;28;20439;-41
2023/04/17 05:19:29;;;;;;;26.93;24.60;;;;;;;13.48;100.00;102660.50;5060467;28;20475;-43
2023/04/17 05:21:56;;;;;;;27.07;25.03;;;;;;;13.69;100.00;102652.75;5058864;28;20474;-45
2023/04/17 05:24:24;;;;;;;24.63;23.03;;;;;;;14.06;100.00;102660.22;5060435;28;20427;-42
2023/04/17 05:26:53;;;;;;;27.77;24.93;;;;;;;14.52;100.00;102650.47;5060364;28;20431;-45
2023/04/17 05:29:23;;;;;;;26.20;23.43;;;;;;;14.75;100.00;102653.19;5060491;28;20431;-42
2023/04/17 05:31:51;;;;;;;25.60;23.47;;;;;;;14.80;100.00;102659.69;5057052;28;20521;-42
2023/04/17 05:34:19;;;;;;;23.57;21.83;;;;;;;15.18;95.12;102651.69;5060660;28;20546;-42
2023/04/17 05:36:47;;;;;;;24.00;22.03;;;;;;;15.43;96.10;102655.84;5059795;28;20465;-44
2023/04/17 05:39:14;;;;;;;23.67;21.53;;;;;;;15.66;90.06;102656.66;5059893;28;20518;-41
2023/04/17 05:41:42;;;;;;;23.10;21.20;;;;;;;15.48;85.00;102659.69;5058887;28;20539;-48
2023/04/17 05:44:11;;;;;;;20.93;19.23;;;;;;;15.57;89.47;102659.59;5060218;28;20928;-43
2023/04/17 05:46:39;;;;;;;22.00;20.30;;;;;;;15.67;84.10;102666.41;5059439;28;20445;-42
2023/04/17 05:49:07;;;;;;;21.17;19.43;;;;;;;15.74;83.08;102672.69;5059682;28;20427;-42
2023/04/17 05:51:36;;;;;;;21.10;19.20;;;;;;;15.80;81.40;102668.47;5058831;28;20466;-46
2023/04/17 05:54:03;;;;;;;18.30;16.93;;;;;;;15.38;82.07;102664.44;5059907;28;20441;-41
2023/04/17 05:56:31;;;;;;;18.80;17.23;;;;;;;15.20;85.95;102671.97;5059674;28;20431;-47
2023/04/17 05:58:58;;;;;;;19.80;18.10;;;;;;;15.76;88.28;102668.00;5059951;28;20465;-44
2023/04/17 06:01:28;;;;;;;19.00;17.43;;;;;;;14.91;80.45;102670.03;5059378;28;20518;-45
2023/04/17 06:03:56;;;;;;;18.10;16.53;;;;;;;14.63;89.14;102681.47;5053680;28;20462;-44
2023/04/17 06:06:25;;;;;;;20.93;19.20;;;;;;;15.13;92.64;102676.44;5059329;28;20427;-47
2023/04/17 06:08:53;;;;;;;18.60;17.10;;;;;;;15.07;83.02;102679.00;5059338;28;20494;-43
2023/04/17 06:11:21;;;;;;;21.20;18.43;;;;;;;15.23;85.62;102679.69;5058658;28;20806;-47
2023/04/17 06:13:48;;;;;;;17.27;15.67;;;;;;;14.56;89.43;102684.00;5057939;28;20463;-47
2023/04/17 06:16:16;;;;;;;16.20;14.60;;;;;;;14.84;86.63;102681.69;5059302;28;20449;-47
2023/04/17 06:18:46;;;;;;;16.47;15.10;;;;;;;15.01;85.01;102682.38;5059050;28;20443;-45
2023/04/17 06:21:13;;;;;;;15.40;14.10;;;;;;;15.58;83.91;102685.50;5058740;28;20483;-43
2023/04/17 06:23:41;;;;;;;16.07;14.77;;;;;;;16.00;78.77;102685.72;5058405;28;20462;-45
2023/04/17 06:26:09;;;;;;;16.37;15.07;;;;;;;16.11;72.85;102687.94;5058772;28;20443;-45
2023/04/17 06:28:37;;;;;;;16.50;15.00;;;;;;;15.65;76.33;102681.06;5058915;28;20518;-44
2023/04/17 06:31:05;;;;;;;17.27;15.57;;;;;;;15.16;81.86;102694.88;5058575;28;20455;-47
2023/04/17 06:33:33;;;;;;;14.43;13.33;;;;;;;14.96;82.53;102691.00;5055243;28;20466;-45
2023/04/17 06:36:02;;;;;;;16.10;14.90;;;;;;;15.21;86.23;102689.78;5059066;28;20435;-44
2023/04/17 06:38:30;;;;;;;16.70;15.30;;;;;;;15.71;82.68;102681.13;5058867;28;20940;-44
2023/04/17 06:40:58;;;;;;;15.67;14.27;;;;;;;15.90;77.62;102693.22;5058762;28;20446;-43
2023/04/17 06:43:25;;;;;;;17.83;16.23;;;;;;;16.28;77.00;102691.28;5058161;28;20509;-46
2023/04/17 06:45:53;;;;;;;14.50;13.37;;;;;;;16.51;72.12;102697.41;5058999;28;20499;-48
2023/04/17 06:48:21;;;;;;;16.20;14.80;;;;;;;16.34;68.85;102698.59;5058078;28;20434;-48
2023/04/17 06:50:49;;;;;;;15.27;14.07;;;;;;;16.90;71.52;102695.19;5058581;28;20968;-44
2023/04/17 06:53:18;;;;;;;12.87;12.00;;;;;;;17.01;68.59;102696.53;5058540;28;20466;-43
2023/04/17 06:55:46;;;;;;;14.90;13.80;;;;;;;17.31;68.30;102703.47;5059437;28;20484;-46
2023/04/17 06:58:14;;;;;;;16.73;14.87;;;;;;;17.24;65.89;102713.38;5057849;28;20467;-43
2023/04/17 07:00:42;;;;;;;13.10;12.17;;;;;;;17.23;64.16;102710.88;5057883;28;20458;-47
2023/04/17 07:03:10;;;;;;;13.97;12.77;;;;;;;16.89;69.65;102715.09;5054196;28;20561;-46
2023/04/17 07:05:37;;;;;;;14.03;12.20;;;;;;;16.97;65.67;102714.97;5057791;28;20460;-49
2023/04/17 07:08:06;;;;;;;13.03;12.00;;;;;;;17.23;63.87;102718.97;5058314;28;20442;-46
2023/04/17 07:10:35;;;;;;;12.50;11.50;;;;;;;17.19;66.29;102721.19;5057491;28;20976;-42
2023/04/17 07:13:02;;;;;;;13.33;12.23;;;;;;;17.07;69.07;102731.66;5058448;28;20455;-43
2023/04/17 07:15:30;;;;;;;14.30;13.00;;;;;;;17.07;65.90;102726.28;5059074;28;20435;-43
2023/04/17 07:17:58;;;;;;;13.87;12.87;;;;;;;16.74;66.90;102725.06;5058499;28;20435;-45
2023/04/17 07:20:26;;;;;;;14.53;12.30;;;;;;;16.70;68.73;102728.31;5058162;28;20442;-45
2023/04/17 07:22:55;;;;;;;14.93;13.67;;;;;;;16.48;73.16;102725.53;5058196;28;20578;-45
2023/04/17 07:25:23;;;;;;;14.13;13.00;;;;;;;16.58;72.30;102726.09;5058594;28;20439;-45
2023/04/17 07:27:55;;;;;;;13.20;12.40;;;;;;;16.39;73.31;102725.81;5058652;28;20437;-42
2023/04/17 07:30:23;;;;;;;13.10;11.80;;;;;;;16.07;74.36;102727.00;5058366;28;20451;-43
2023/04/17 07:32:51;;;;;;;14.47;13.17;;;;;;;15.56;80.98;102726.00;5057977;28;20940;-46
2023/04/17 07:35:19;;;;;;;14.33;13.03;;;;;;;15.07;81.82;102733.56;5050846;28;20537;-42
2023/04/17 07:37:46;;;;;;;15.97;14.20;;;;;;;14.81;87.89;102735.75;5058317;28;20431;-47
2023/04/17 07:40:15;;;;;;;15.17;13.67;;;;;;;14.55;90.99;102737.88;5057923;28;20960;-42
2023/04/17 07:42:42;;;;;;;13.47;12.27;;;;;;;14.30;95.10;102746.00;5057790;28;20485;-44
2023/04/17 07:45:12;;;;;;;12.33;11.30;;;;;;;14.00;99.30;102752.09;5057496;28;20888;-45
2023/04/17 07:47:40;;;;;;;13.30;12.30;;;;;;;14.02;100.00;102741.19;5058998;28;20435;-41
2023/04/17 07:50:08;;;;;;;13.60;12.20;;;;;;;13.69;100.00;102745.75;5057803;28;20465;-47
2023/04/17 07:52:36;;;;;;;13.33;12.10;;;;;;;13.54;100.00;102742.91;5058202;28;20490;-42
2023/04/17 07:55:04;;;;;;;14.80;13.37;;;;;;;13.69;100.00;102749.28;5058408;28;20485;-42
2023/04/17 07:57:31;;;;;;;12.83;11.67;;;;;;;13.66;100.00;102754.97;5061902;28;20500;-47
2023/04/17 07:59:59;;;;;;;13.03;11.90;;;;;;;13.49;100.00;102750.63;5061856;28;20467;-47
2023/04/17 08:02:28;;;;;;;13.30;12.10;;;;;;;13.67;100.00;102745.94;5061963;28;20478;-42
2023/04/17 08:04:57;;;;;;;13.60;12.20;;;;;;;13.57;100.00;102769.38;5061275;28;20469;-42
2023/04/17 08:07:24;;;;;;;13.40;12.13;;;;;;;13.27;100.00;102751.25;5061788;28;20948;-45
2023/04/17 08:09:52;;;;;;;12.00;10.90;;;;;;;13.24;100.00;102763.16;5061492;28;20439;-44
2023/04/17 08:12:20;;;;;;;12.53;11.20;;;;;;;13.43;100.00;102750.44;5061446;28;20885;-44
2023/04/17 08:14:48;;;;;;;12.80;11.60;;;;;;;13.47;100.00;102765.22;5060592;28;20466;-42
2023/04/17 08:17:18;;;;;;;12.93;11.73;;;;;;;13.38;100.00;102758.97;5061696;28;20431;-44
2023/04/17 08:19:49;;;;;;;13.80;12.37;;;;;;;13.37;100.00;102770.72;5061556;28;20782;-45
2023/04/17 08:22:18;;;;;;;13.50;12.40;;;;;;;13.19;100.00;102768.19;5060867;28;20985;-43
2023/04/17 08:24:46;;;;;;;12.87;11.70;;;;;;;13.25;100.00;102777.41;5061242;28;20489;-48
2023/04/17 08:27:14;;;;;;;14.33;12.93;;;;;;;13.35;100.00;102771.88;5061880;28;20477;-48
2023/04/17 08:29:43;;;;;;;13.13;12.03;;;;;;;13.51;100.00;102774.56;5061184;28;20438;-50
2023/04/17 08:32:11;;;;;;;14.23;13.03;;;;;;;13.77;100.00;102773.41;5061225;28;20451;-49
2023/04/17 08:34:42;;;;;;;14.20;12.87;;;;;;;13.84;100.00;102779.78;5058470;28;20459;-45
2023/04/17 08:37:11;;;;;;;15.23;13.83;;;;;;;13.82;100.00;102770.22;5061651;28;20439;-44
2023/04/17 08:39:39;;;;;;;14.03;12.73;;;;;;;13.65;100.00;102773.94;5061954;28;20526;-42
2023/04/17 08:42:10;;;;;;;14.33;12.93;;;;;;;13.75;100.00;102779.94;5060914;28;20801;-47
2023/04/17 08:44:44;;;;;;;13.10;11.80;;;;;;;13.70;100.00;102790.34;5060373;28;20469;-46
2023/04/17 08:47:13;;;;;;;12.73;11.67;;;;;;;13.81;100.00;102780.13;5060773;28;20948;-44
2023/04/17 08:49:42;;;;;;;13.37;12.17;;;;;;;13.60;100.00;102782.44;5060519;28;20542;-49
2023/04/17 08:52:12;;;;;;;14.00;12.70;;;;;;;13.67;100.00;102791.50;5060487;28;20542;-48
2023/04/17 08:54:39;;;;;;;15.37;13.30;;;;;;;13.75;100.00;102780.78;5060568;28;20539;-45
2023/04/17 08:57:07;;;;;;;12.90;11.60;;;;;;;13.66;100.00;102794.34;5060751;28;20431;-44
2023/04/17 08:59:35;;;;;;;12.93;11.63;;;;;;;13.79;100.00;102795.53;5060730;28;20888;-45
2023/04/17 09:02:05;;;;;;;15.73;14.23;;;;;;;13.60;100.00;102792.34;5060414;28;20471;-46
2023/04/17 09:04:38;;;;;;;13.60;12.30;;;;;;;14.00;100.00;102799.53;5057694;28;20884;-45
2023/04/17 09:07:07;;;;;;;16.83;12.57;;;;;;;13.94;100.00;102794.84;5059587;28;20433;-46
2023/04/17 09:09:48;;;;;;;14.20;13.07;;;;;;;13.84;100.00;102792.34;5059987;28;20432;-43
2023/04/17 09:12:16;;;;;;;12.40;11.30;;;;;;;13.78;100.00;102803.75;5060373;28;20466;-49
2023/04/17 09:14:44;;;;;;;13.77;12.50;;;;;;;13.71;100.00;102795.53;5059696;28;20462;-43
2023/04/17 09:17:13;;;;;;;13.40;12.30;;;;;;;13.89;100.00;102800.72;5061111;28;20526;-43
2023/04/17 09:20:02;;;;;;;12.63;11.63;;;;;;;13.96;100.00;102801.72;5060011;28;20435;-47
2023/04/17 09:22:30;;;;;;;12.67;11.47;;;;;;;13.55;100.00;102811.63;5060341;28;20428;-43
2023/04/17 09:25:00;;;;;;;13.30;11.73;;;;;;;13.74;100.00;102811.28;5059731;28;20491;-46
2023/04/17 09:27:28;;;;;;;14.17;12.47;;;;;;;13.82;100.00;102822.03;5060594;28;20437;-44
2023/04/17 09:29:58;;;;;;;13.57;12.27;;;;;;;13.69;100.00;102821.66;5060557;28;20446;-47
2023/04/17 09:32:26;;;;;;;14.40;13.00;;;;;;;13.72;100.00;102818.66;5060393;28;20427;-48
2023/04/17 09:34:55;;;;;;;14.27;13.07;;;;;;;13.81;100.00;102830.22;5059575;28;20463;-47
2023/04/17 09:37:23;;;;;;;14.93;13.10;;;;;;;13.75;100.00;102826.38;5060149;28;20423;-44
2023/04/17 09:40:01;;;;;;;15.30;13.60;;;;;;;13.61;100.00;102837.75;5060591;28;20474;-43
2023/04/17 09:42:28;;;;;;;15.13;13.73;;;;;;;13.90;100.00;102833.75;5060991;28;20427;-43
2023/04/17 09:44:56;;;;;;;14.97;13.67;;;;;;;14.11;100.00;102839.44;5059905;28;20459;-43
2023/04/17 09:47:24;;;;;;;15.20;13.60;;;;;;;13.64;100.00;102834.75;5059755;28;20435;-46
2023/04/17 09:49:52;;;;;;;17.57;15.70;;;;;;;13.72;100.00;102847.31;5060091;28;20530;-42
2023/04/17 09:52:22;;;;;;;16.37;14.60;;;;;;;13.69;100.00;102837.75;5059484;28;20755;-44
2023/04/17 09:54:52;;;;;;;18.30;16.47;;;;;;;13.80;100.00;102841.94;5055509;28;21018;-43
2023/04/17 09:57:22;;;;;;;17.30;15.70;;;;;;;13.78;100.00;102841.28;5060137;28;20431;-47
2023/04/17 09:59:50;;;;;;;16.77;15.37;;;;;;;13.80;100.00;102847.31;5060421;28;20439;-43
2023/04/17 10:02:21;;;;;;;20.53;18.47;;;;;;;13.86;100.00;102843.97;5059036;28;20984;-44
2023/04/17 10:04:49;;;;;;;21.60;19.70;;;;;;;14.09;100.00;102846.81;5046449;28;20479;-48
2023/04/17 10:07:17;;;;;;;23.50;21.03;;;;;;;14.27;100.00;102853.69;5059544;28;20435;-45
2023/04/17 10:09:45;;;;;;;26.10;23.40;;;;;;;14.12;100.00;102858.06;5059709;28;20435;-47
2023/04/17 10:12:15;;;;;;;25.03;22.33;;;;;;;14.10;100.00;102852.00;5059503;28;20884;-44
2023/04/17 10:14:47;;;;;;;27.17;24.33;;;;;;;14.34;100.00;102860.06;5058978;28;20542;-45
2023/04/17 10:17:27;;;;;;;27.43;24.43;;;;;;;14.46;100.00;102854.34;5059791;28;20472;-48
2023/04/17 10:19:55;;;;;;;25.90;23.20;;;;;;;14.34;100.00;102861.91;5059396;28;20427;-45
2023/04/17 10:22:30;;;;;;;28.60;23.30;;;;;;;14.29;100.00;102861.56;5058864;28;20506;-46
2023/04/17 10:25:17;;;;;;;23.67;21.37;;;;;;;14.06;95.31;102856.06;5058700;28;20541;-42
2023/04/17 10:28:05;;;;;;;22.50;20.23;;;;;;;13.82;93.00;102866.78;5059264;28;20507;-44
2023/04/17 10:30:54;;;;;;;18.10;16.50;;;;;;;13.97;78.71;102853.53;5058712;28;20455;-44
2023/04/17 10:33:24;;;;;;;17.33;15.70;;;;;;;13.95;75.69;102868.97;5059658;28;20427;-44
2023/04/17 10:35:53;;;;;;;15.87;14.07;;;;;;;13.78;69.05;102857.38;5050302;28;20459;-44
2023/04/17 10:38:32;;;;;;;12.50;11.37;;;;;;;13.67;60.09;102850.50;5059452;28;20428;-44
2023/04/17 10:41:03;;;;;;;11.00;10.00;;;;;;;13.77;58.70;102871.78;5059441;28;20511;-47
2023/04/17 10:43:31;;;;;;;13.77;12.37;;;;;;;13.89;59.22;102872.31;5058665;28;20424;-42
2023/04/17 10:46:05;;;;;;;12.00;10.90;;;;;;;13.98;56.65;102865.94;5051220;28;20458;-43
2023/04/17 10:48:35;;;;;;;12.63;11.40;;;;;;;13.95;57.19;102855.56;5059297;28;20499;-45
2023/04/17 10:51:36;;;;;;;11.60;10.60;;;;;;;13.90;55.65;102866.78;5059217;28;20451;-42
2023/04/17 10:54:05;;;;;;;10.63;9.73;;;;;;;13.86;58.00;102868.94;5059438;28;20431;-42
2023/04/17 10:56:37;;;;;;;12.43;11.17;;;;;;;13.85;61.41;102864.59;5057931;28;20833;-42
2023/04/17 10:59:06;;;;;;;12.67;10.73;;;;;;;13.90;57.89;102876.66;5058498;28;20445;-43
2023/04/17 11:01:40;;;;;;;13.83;11.83;;;;;;;13.72;56.71;102866.06;5058337;28;20448;-48
2023/04/17 11:04:09;;;;;;;14.47;11.60;;;;;;;13.61;56.47;102871.75;5059136;28;20471;-43
2023/04/17 11:06:39;;;;;;;12.20;11.10;;;;;;;13.49;59.76;102886.47;5058478;28;21056;-42
2023/04/17 11:09:09;;;;;;;12.47;11.30;;;;;;;13.72;59.29;102882.16;5057975;28;20781;-45
2023/04/17 11:11:38;;;;;;;17.33;11.47;;;;;;;14.02;61.34;102888.72;5058046;28;20813;-43
2023/04/17 11:14:12;;;;;;;13.27;11.70;;;;;;;14.18;60.16;102884.22;5058659;28;20450;-43